DLH2EP EDDF-EKCH
Flight info
| Callsign | DLH2EP |
|---|---|
| Flight time | 1h 1m |
| Altitude | 35000 |
| Route | MARUN9S MARUN Y150 TOLGI DCT SAS DCT MAKEL N851 GESKA Z711 MONAK |
| Aircraft | A321/M-SDE3FGHIRWY/LB1 |
Departure
| Time | 2026-05-06 01:50 |
|---|---|
| Airport | Frankfurt Main Airport (EDDF) |
Arrival
| Time | 2026-05-06 02:51 |
|---|---|
| Airport | Copenhagen Kastrup Airport (EKCH) |
| Time | Latitude | Longitude | Altitude | Speed | Heading |
|---|---|---|---|---|---|
| 2026-05-06 01:31 | 50.04468 | 8.56484 | 356 ft | 0 kts | 159° |
| 2026-05-06 01:37 | 50.04480 | 8.56477 | 363 ft | 3 kts | 160° |
| 2026-05-06 01:37 | 50.04499 | 8.56466 | 362 ft | 3 kts | 161° |
| 2026-05-06 01:37 | 50.04518 | 8.56456 | 359 ft | 2 kts | 161° |
| 2026-05-06 01:38 | 50.04534 | 8.56448 | 364 ft | 3 kts | 171° |
| 2026-05-06 01:38 | 50.04554 | 8.56446 | 363 ft | 3 kts | 192° |
| 2026-05-06 01:38 | 50.04572 | 8.56455 | 361 ft | 2 kts | 204° |
| 2026-05-06 01:38 | 50.04574 | 8.56456 | 361 ft | 0 kts | 204° |
| 2026-05-06 01:40 | 50.04573 | 8.56456 | 361 ft | 1 kts | 204° |
| 2026-05-06 01:40 | 50.04551 | 8.56440 | 361 ft | 7 kts | 207° |
| 2026-05-06 01:40 | 50.04516 | 8.56377 | 358 ft | 12 kts | 246° |
| 2026-05-06 01:40 | 50.04476 | 8.56219 | 358 ft | 17 kts | 250° |
| 2026-05-06 01:41 | 50.04429 | 8.56049 | 363 ft | 17 kts | 228° |
| 2026-05-06 01:41 | 50.04351 | 8.56051 | 360 ft | 4 kts | 159° |
| 2026-05-06 01:41 | 50.04349 | 8.56052 | 360 ft | 0 kts | 159° |
| 2026-05-06 01:41 | 50.04340 | 8.56057 | 362 ft | 3 kts | 159° |
| 2026-05-06 01:42 | 50.04298 | 8.56070 | 357 ft | 8 kts | 184° |
| 2026-05-06 01:42 | 50.04255 | 8.56001 | 361 ft | 10 kts | 246° |
| 2026-05-06 01:42 | 50.04227 | 8.55890 | 356 ft | 12 kts | 249° |
| 2026-05-06 01:42 | 50.04195 | 8.55758 | 358 ft | 14 kts | 250° |
| 2026-05-06 01:43 | 50.04160 | 8.55609 | 356 ft | 16 kts | 249° |
| 2026-05-06 01:43 | 50.04121 | 8.55447 | 358 ft | 17 kts | 250° |
| 2026-05-06 01:43 | 50.04081 | 8.55279 | 361 ft | 16 kts | 250° |
| 2026-05-06 01:43 | 50.04041 | 8.55111 | 355 ft | 17 kts | 250° |
| 2026-05-06 01:44 | 50.03999 | 8.54933 | 358 ft | 18 kts | 250° |
| 2026-05-06 01:44 | 50.03952 | 8.54738 | 359 ft | 21 kts | 249° |
| 2026-05-06 01:44 | 50.03901 | 8.54522 | 351 ft | 22 kts | 250° |
| 2026-05-06 01:44 | 50.03830 | 8.54303 | 354 ft | 23 kts | 234° |
| 2026-05-06 01:45 | 50.03768 | 8.54083 | 344 ft | 22 kts | 268° |
| 2026-05-06 01:45 | 50.03715 | 8.53865 | 351 ft | 22 kts | 249° |
| 2026-05-06 01:45 | 50.03658 | 8.53636 | 347 ft | 23 kts | 249° |
| 2026-05-06 01:45 | 50.03600 | 8.53399 | 336 ft | 24 kts | 250° |
| 2026-05-06 01:46 | 50.03543 | 8.53163 | 335 ft | 20 kts | 249° |
| 2026-05-06 01:46 | 50.03494 | 8.52956 | 336 ft | 21 kts | 249° |
| 2026-05-06 01:46 | 50.03445 | 8.52779 | 333 ft | 13 kts | 246° |
| 2026-05-06 01:46 | 50.03432 | 8.52727 | 331 ft | 0 kts | 249° |
| 2026-05-06 01:47 | 50.03429 | 8.52717 | 332 ft | 2 kts | 250° |
| 2026-05-06 01:48 | 50.03423 | 8.52688 | 334 ft | 4 kts | 250° |
| 2026-05-06 01:48 | 50.03407 | 8.52643 | 334 ft | 6 kts | 236° |
| 2026-05-06 01:48 | 50.03369 | 8.52598 | 333 ft | 8 kts | 196° |
| 2026-05-06 01:48 | 50.03311 | 8.52595 | 334 ft | 9 kts | 180° |
| 2026-05-06 01:49 | 50.03189 | 8.52595 | 336 ft | 44 kts | 180° |
| 2026-05-06 01:49 | 50.02641 | 8.52600 | 335 ft | 112 kts | 179° |
| 2026-05-06 01:49 | 50.01667 | 8.52610 | 337 ft | 165 kts | 180° |
| 2026-05-06 01:49 | 50.00492 | 8.52624 | 945 ft | 168 kts | 181° |
| 2026-05-06 01:50 | 49.99327 | 8.52616 | 1701 ft | 170 kts | 186° |
| 2026-05-06 01:50 | 49.98114 | 8.52367 | 2001 ft | 184 kts | 204° |
| 2026-05-06 01:50 | 49.97008 | 8.51229 | 2194 ft | 201 kts | 226° |
| 2026-05-06 01:50 | 49.95985 | 8.49670 | 2693 ft | 208 kts | 226° |
| 2026-05-06 01:51 | 49.94940 | 8.48097 | 3315 ft | 210 kts | 226° |
| 2026-05-06 01:51 | 49.93883 | 8.46510 | 3926 ft | 212 kts | 227° |
| 2026-05-06 01:51 | 49.92809 | 8.44902 | 4440 ft | 221 kts | 226° |
| 2026-05-06 01:51 | 49.91644 | 8.43153 | 4736 ft | 243 kts | 226° |
| 2026-05-06 01:52 | 49.90405 | 8.41294 | 5334 ft | 250 kts | 226° |
| 2026-05-06 01:52 | 49.89143 | 8.39404 | 6037 ft | 254 kts | 226° |
| 2026-05-06 01:52 | 49.87941 | 8.37389 | 6716 ft | 256 kts | 238° |
| 2026-05-06 01:52 | 49.87338 | 8.34809 | 7373 ft | 259 kts | 263° |
| 2026-05-06 01:53 | 49.87565 | 8.32026 | 8046 ft | 267 kts | 289° |
| 2026-05-06 01:53 | 49.88498 | 8.29488 | 8716 ft | 273 kts | 299° |
| 2026-05-06 01:53 | 49.89533 | 8.26997 | 9410 ft | 276 kts | 299° |
| 2026-05-06 01:53 | 49.90589 | 8.24482 | 9999 ft | 283 kts | 301° |
| 2026-05-06 01:54 | 49.92028 | 8.22198 | 10141 ft | 311 kts | 321° |
| 2026-05-06 01:54 | 49.93987 | 8.20588 | 10266 ft | 336 kts | 337° |
| 2026-05-06 01:54 | 49.96340 | 8.19743 | 10391 ft | 360 kts | 352° |
| 2026-05-06 01:54 | 49.98916 | 8.19871 | 10517 ft | 381 kts | 8° |
| 2026-05-06 01:55 | 50.01498 | 8.21163 | 10644 ft | 400 kts | 22° |
| 2026-05-06 01:55 | 50.04081 | 8.22926 | 10972 ft | 408 kts | 22° |
| 2026-05-06 01:55 | 50.06682 | 8.24735 | 11495 ft | 411 kts | 22° |
| 2026-05-06 01:55 | 50.09297 | 8.26571 | 12052 ft | 413 kts | 22° |
| 2026-05-06 01:56 | 50.11924 | 8.28421 | 12587 ft | 416 kts | 22° |
| 2026-05-06 01:56 | 50.14568 | 8.30286 | 13110 ft | 418 kts | 23° |
| 2026-05-06 01:56 | 50.17227 | 8.32163 | 13595 ft | 421 kts | 23° |
| 2026-05-06 01:56 | 50.19914 | 8.34055 | 14045 ft | 424 kts | 23° |
| 2026-05-06 01:57 | 50.22610 | 8.35952 | 14485 ft | 427 kts | 23° |
| 2026-05-06 01:57 | 50.25295 | 8.37843 | 14921 ft | 429 kts | 23° |
| 2026-05-06 01:57 | 50.28030 | 8.39769 | 15352 ft | 432 kts | 23° |
| 2026-05-06 01:57 | 50.30835 | 8.41476 | 15771 ft | 434 kts | 18° |
| 2026-05-06 01:58 | 50.33708 | 8.43032 | 16197 ft | 437 kts | 18° |
| 2026-05-06 01:58 | 50.36585 | 8.44588 | 16643 ft | 439 kts | 18° |
| 2026-05-06 01:58 | 50.39483 | 8.46158 | 17070 ft | 441 kts | 18° |
| 2026-05-06 01:58 | 50.42388 | 8.47740 | 17487 ft | 444 kts | 18° |
| 2026-05-06 01:59 | 50.45317 | 8.49344 | 17902 ft | 447 kts | 18° |
| 2026-05-06 01:59 | 50.48267 | 8.50952 | 18270 ft | 450 kts | 18° |
| 2026-05-06 01:59 | 50.51249 | 8.52480 | 18636 ft | 452 kts | 17° |
| 2026-05-06 01:59 | 50.54262 | 8.53929 | 19007 ft | 454 kts | 16° |
| 2026-05-06 02:00 | 50.57298 | 8.55336 | 19383 ft | 455 kts | 15° |
| 2026-05-06 02:00 | 50.60346 | 8.56732 | 19803 ft | 456 kts | 15° |
| 2026-05-06 02:00 | 50.63362 | 8.58128 | 20176 ft | 458 kts | 16° |
| 2026-05-06 02:00 | 50.66420 | 8.59569 | 20536 ft | 460 kts | 16° |
| 2026-05-06 02:01 | 50.69486 | 8.61039 | 20919 ft | 461 kts | 16° |
| 2026-05-06 02:01 | 50.72504 | 8.62501 | 21953 ft | 444 kts | 17° |
| 2026-05-06 02:01 | 50.75396 | 8.63912 | 23165 ft | 428 kts | 17° |
| 2026-05-06 02:01 | 50.78164 | 8.65560 | 23775 ft | 424 kts | 25° |
| 2026-05-06 02:02 | 50.80762 | 8.67811 | 24182 ft | 425 kts | 33° |
| 2026-05-06 02:02 | 50.83128 | 8.70603 | 24533 ft | 426 kts | 41° |
| 2026-05-06 02:02 | 50.85246 | 8.73888 | 24889 ft | 426 kts | 49° |
| 2026-05-06 02:02 | 50.87085 | 8.77552 | 25345 ft | 424 kts | 53° |
| 2026-05-06 02:03 | 50.88867 | 8.81267 | 25812 ft | 422 kts | 54° |
| 2026-05-06 02:03 | 50.90640 | 8.84964 | 26271 ft | 421 kts | 54° |
| 2026-05-06 02:03 | 50.91812 | 8.87411 | 26575 ft | 420 kts | 54° |
| 2026-05-06 02:03 | 50.93580 | 8.91109 | 26910 ft | 422 kts | 54° |
| 2026-05-06 02:04 | 50.95357 | 8.94830 | 27223 ft | 425 kts | 54° |
| 2026-05-06 02:04 | 50.97150 | 8.98590 | 27373 ft | 431 kts | 54° |
| 2026-05-06 02:04 | 50.98972 | 9.02420 | 27510 ft | 437 kts | 54° |
| 2026-05-06 02:04 | 51.00816 | 9.06301 | 27643 ft | 443 kts | 54° |
| 2026-05-06 02:05 | 51.02685 | 9.10242 | 27783 ft | 449 kts | 54° |
| 2026-05-06 02:05 | 51.04573 | 9.14232 | 27922 ft | 454 kts | 54° |
| 2026-05-06 02:05 | 51.06483 | 9.18273 | 28061 ft | 459 kts | 54° |
| 2026-05-06 02:05 | 51.08572 | 9.22142 | 28199 ft | 465 kts | 46° |
| 2026-05-06 02:06 | 51.11043 | 9.25477 | 28357 ft | 469 kts | 36° |
| 2026-05-06 02:06 | 51.13848 | 9.28149 | 28594 ft | 471 kts | 26° |
| 2026-05-06 02:06 | 51.16905 | 9.30050 | 28883 ft | 472 kts | 17° |
| 2026-05-06 02:06 | 51.20102 | 9.31237 | 29164 ft | 472 kts | 13° |
| 2026-05-06 02:07 | 51.23317 | 9.32331 | 29491 ft | 471 kts | 14° |
| 2026-05-06 02:07 | 51.26516 | 9.33443 | 29814 ft | 469 kts | 14° |
| 2026-05-06 02:07 | 51.29661 | 9.34551 | 30082 ft | 468 kts | 14° |
| 2026-05-06 02:07 | 51.32844 | 9.35675 | 30331 ft | 468 kts | 14° |
| 2026-05-06 02:08 | 51.36019 | 9.36796 | 30560 ft | 468 kts | 14° |
| 2026-05-06 02:08 | 51.39198 | 9.37914 | 30823 ft | 468 kts | 14° |
| 2026-05-06 02:08 | 51.42378 | 9.39026 | 31061 ft | 467 kts | 14° |
| 2026-05-06 02:08 | 51.45556 | 9.40129 | 31295 ft | 467 kts | 15° |
| 2026-05-06 02:09 | 51.48731 | 9.41229 | 31531 ft | 467 kts | 15° |
| 2026-05-06 02:09 | 51.51904 | 9.42333 | 31762 ft | 467 kts | 15° |
| 2026-05-06 02:09 | 51.55080 | 9.43445 | 31990 ft | 467 kts | 15° |
| 2026-05-06 02:09 | 51.58254 | 9.44562 | 32224 ft | 467 kts | 15° |
| 2026-05-06 02:10 | 51.61419 | 9.45676 | 32446 ft | 467 kts | 15° |
| 2026-05-06 02:10 | 51.64597 | 9.46798 | 32666 ft | 467 kts | 15° |
| 2026-05-06 02:10 | 51.67772 | 9.47919 | 32877 ft | 467 kts | 15° |
| 2026-05-06 02:10 | 51.70959 | 9.49047 | 33016 ft | 470 kts | 15° |
| 2026-05-06 02:11 | 51.74159 | 9.50185 | 33197 ft | 471 kts | 15° |
| 2026-05-06 02:11 | 51.77356 | 9.51324 | 33410 ft | 471 kts | 15° |
| 2026-05-06 02:11 | 51.80557 | 9.52474 | 33640 ft | 470 kts | 17° |
| 2026-05-06 02:11 | 51.83665 | 9.54060 | 33838 ft | 466 kts | 26° |
| 2026-05-06 02:12 | 51.86587 | 9.56294 | 34001 ft | 464 kts | 31° |
| 2026-05-06 02:12 | 51.89459 | 9.58687 | 34165 ft | 464 kts | 31° |
| 2026-05-06 02:12 | 51.92336 | 9.61076 | 34292 ft | 466 kts | 30° |
| 2026-05-06 02:12 | 51.95233 | 9.63476 | 34423 ft | 467 kts | 30° |
| 2026-05-06 02:13 | 51.98130 | 9.65875 | 34578 ft | 468 kts | 30° |
| 2026-05-06 02:13 | 52.01032 | 9.68283 | 34743 ft | 468 kts | 30° |
| 2026-05-06 02:13 | 52.06866 | 9.73141 | 34796 ft | 473 kts | 30° |
| 2026-05-06 02:14 | 52.12728 | 9.78038 | 34804 ft | 474 kts | 30° |
| 2026-05-06 02:14 | 52.18616 | 9.82965 | 34816 ft | 477 kts | 30° |
| 2026-05-06 02:15 | 52.24478 | 9.87901 | 34822 ft | 477 kts | 30° |
| 2026-05-06 02:15 | 52.30426 | 9.92867 | 34822 ft | 477 kts | 30° |
| 2026-05-06 02:16 | 52.36330 | 9.97719 | 34825 ft | 478 kts | 30° |
| 2026-05-06 02:16 | 52.42285 | 10.02613 | 34826 ft | 480 kts | 30° |
| 2026-05-06 02:17 | 52.48237 | 10.07554 | 34835 ft | 480 kts | 30° |
| 2026-05-06 02:17 | 52.54203 | 10.12540 | 34843 ft | 481 kts | 30° |
| 2026-05-06 02:18 | 52.60176 | 10.17537 | 34846 ft | 482 kts | 30° |
| 2026-05-06 02:18 | 52.66169 | 10.22559 | 34841 ft | 484 kts | 30° |
| 2026-05-06 02:19 | 52.72172 | 10.27606 | 34846 ft | 484 kts | 30° |
| 2026-05-06 02:19 | 52.78177 | 10.32663 | 34850 ft | 485 kts | 30° |
| 2026-05-06 02:20 | 52.87195 | 10.40309 | 34851 ft | 486 kts | 30° |
| 2026-05-06 02:21 | 52.93214 | 10.45426 | 34861 ft | 487 kts | 30° |
| 2026-05-06 02:21 | 52.99242 | 10.50564 | 34867 ft | 487 kts | 30° |
| 2026-05-06 02:22 | 53.05272 | 10.55722 | 34870 ft | 488 kts | 30° |
| 2026-05-06 02:22 | 53.11300 | 10.60904 | 34877 ft | 488 kts | 30° |
| 2026-05-06 02:23 | 53.17333 | 10.66093 | 34879 ft | 488 kts | 30° |
| 2026-05-06 02:23 | 53.23371 | 10.71304 | 34882 ft | 488 kts | 30° |
| 2026-05-06 02:24 | 53.29415 | 10.76532 | 34882 ft | 489 kts | 29° |
| 2026-05-06 02:24 | 53.35467 | 10.81798 | 34876 ft | 491 kts | 30° |
| 2026-05-06 02:25 | 53.41536 | 10.87093 | 34882 ft | 492 kts | 30° |
| 2026-05-06 02:25 | 53.47608 | 10.92412 | 34889 ft | 492 kts | 30° |
| 2026-05-06 02:26 | 53.53679 | 10.97754 | 34897 ft | 493 kts | 29° |
| 2026-05-06 02:26 | 53.59720 | 11.03067 | 34897 ft | 494 kts | 29° |
| 2026-05-06 02:27 | 53.65821 | 11.08448 | 34899 ft | 495 kts | 29° |
| 2026-05-06 02:27 | 53.71919 | 11.13854 | 34901 ft | 495 kts | 29° |
| 2026-05-06 02:28 | 53.78031 | 11.19294 | 34903 ft | 497 kts | 29° |
| 2026-05-06 02:28 | 53.84151 | 11.24755 | 34902 ft | 498 kts | 29° |
| 2026-05-06 02:28 | 53.87222 | 11.27498 | 34758 ft | 498 kts | 29° |
| 2026-05-06 02:29 | 53.90287 | 11.30246 | 34512 ft | 498 kts | 29° |
| 2026-05-06 02:29 | 53.93354 | 11.33002 | 34273 ft | 498 kts | 30° |
| 2026-05-06 02:29 | 53.96418 | 11.35761 | 34038 ft | 499 kts | 29° |
| 2026-05-06 02:29 | 53.99500 | 11.38540 | 33780 ft | 504 kts | 29° |
| 2026-05-06 02:30 | 54.02601 | 11.41333 | 33490 ft | 506 kts | 29° |
| 2026-05-06 02:30 | 54.05714 | 11.44138 | 33240 ft | 506 kts | 29° |
| 2026-05-06 02:30 | 54.08819 | 11.46946 | 32963 ft | 506 kts | 29° |
| 2026-05-06 02:30 | 54.11928 | 11.49766 | 32693 ft | 505 kts | 29° |
| 2026-05-06 02:31 | 54.15032 | 11.52584 | 32429 ft | 505 kts | 29° |
| 2026-05-06 02:31 | 54.18129 | 11.55400 | 32159 ft | 505 kts | 28° |
| 2026-05-06 02:31 | 54.21232 | 11.58230 | 31908 ft | 505 kts | 28° |
| 2026-05-06 02:31 | 54.24303 | 11.61038 | 31651 ft | 505 kts | 28° |
| 2026-05-06 02:32 | 54.27407 | 11.63878 | 31393 ft | 505 kts | 28° |
| 2026-05-06 02:32 | 54.30506 | 11.66717 | 31145 ft | 505 kts | 28° |
| 2026-05-06 02:32 | 54.33594 | 11.69551 | 30704 ft | 503 kts | 27° |
| 2026-05-06 02:32 | 54.36701 | 11.72400 | 29461 ft | 510 kts | 27° |
| 2026-05-06 02:33 | 54.39825 | 11.75272 | 28430 ft | 509 kts | 27° |
| 2026-05-06 02:33 | 54.41932 | 11.77219 | 27683 ft | 509 kts | 27° |
| 2026-05-06 02:33 | 54.49234 | 11.83717 | 25159 ft | 509 kts | 24° |
| 2026-05-06 02:34 | 54.52441 | 11.86257 | 24130 ft | 507 kts | 22° |
| 2026-05-06 02:34 | 54.55662 | 11.88696 | 23121 ft | 504 kts | 21° |
| 2026-05-06 02:34 | 54.58862 | 11.91084 | 22309 ft | 495 kts | 22° |
| 2026-05-06 02:34 | 54.61955 | 11.93596 | 21498 ft | 488 kts | 28° |
| 2026-05-06 02:35 | 54.64806 | 11.96700 | 20705 ft | 482 kts | 33° |
| 2026-05-06 02:35 | 54.67580 | 11.99903 | 19931 ft | 476 kts | 33° |
| 2026-05-06 02:35 | 54.70314 | 12.03081 | 19142 ft | 470 kts | 33° |
| 2026-05-06 02:35 | 54.73013 | 12.06227 | 18379 ft | 464 kts | 33° |
| 2026-05-06 02:36 | 54.75672 | 12.09326 | 17558 ft | 458 kts | 33° |
| 2026-05-06 02:36 | 54.78295 | 12.12377 | 16816 ft | 450 kts | 32° |
| 2026-05-06 02:36 | 54.80872 | 12.15369 | 16079 ft | 442 kts | 32° |
| 2026-05-06 02:36 | 54.83405 | 12.18311 | 15364 ft | 435 kts | 32° |
| 2026-05-06 02:37 | 54.85911 | 12.21228 | 14666 ft | 429 kts | 32° |
| 2026-05-06 02:37 | 54.88369 | 12.24093 | 14005 ft | 423 kts | 32° |
| 2026-05-06 02:37 | 54.90759 | 12.26891 | 13332 ft | 417 kts | 32° |
| 2026-05-06 02:37 | 54.93135 | 12.29685 | 12704 ft | 408 kts | 32° |
| 2026-05-06 02:38 | 54.95465 | 12.32427 | 12114 ft | 400 kts | 32° |
| 2026-05-06 02:38 | 54.97750 | 12.35113 | 11525 ft | 393 kts | 32° |
| 2026-05-06 02:38 | 54.99981 | 12.37730 | 11224 ft | 377 kts | 32° |
| 2026-05-06 02:38 | 55.02103 | 12.40216 | 11102 ft | 359 kts | 32° |
| 2026-05-06 02:39 | 55.04104 | 12.42550 | 10965 ft | 332 kts | 32° |
| 2026-05-06 02:39 | 55.05960 | 12.44710 | 10763 ft | 312 kts | 32° |
| 2026-05-06 02:39 | 55.07739 | 12.46779 | 10308 ft | 303 kts | 32° |
| 2026-05-06 02:39 | 55.09469 | 12.48796 | 10070 ft | 299 kts | 32° |
| 2026-05-06 02:40 | 55.11204 | 12.50824 | 9857 ft | 299 kts | 32° |
| 2026-05-06 02:40 | 55.12934 | 12.52852 | 9729 ft | 299 kts | 32° |
| 2026-05-06 02:40 | 55.14655 | 12.54875 | 9600 ft | 298 kts | 32° |
| 2026-05-06 02:40 | 55.16367 | 12.56895 | 9460 ft | 296 kts | 32° |
| 2026-05-06 02:41 | 55.18076 | 12.58914 | 9333 ft | 295 kts | 32° |
| 2026-05-06 02:41 | 55.19781 | 12.60900 | 9105 ft | 295 kts | 29° |
| 2026-05-06 02:41 | 55.21666 | 12.62108 | 8541 ft | 279 kts | 4° |
| 2026-05-06 02:41 | 55.23491 | 12.62016 | 8417 ft | 248 kts | 346° |
| 2026-05-06 02:42 | 55.25029 | 12.61027 | 8312 ft | 228 kts | 329° |
| 2026-05-06 02:42 | 55.26376 | 12.59681 | 7953 ft | 220 kts | 328° |
| 2026-05-06 02:42 | 55.27696 | 12.58355 | 7409 ft | 217 kts | 330° |
| 2026-05-06 02:42 | 55.28986 | 12.57055 | 6776 ft | 216 kts | 332° |
| 2026-05-06 02:43 | 55.30285 | 12.55739 | 6144 ft | 215 kts | 333° |
| 2026-05-06 02:43 | 55.31573 | 12.54428 | 5493 ft | 213 kts | 332° |
| 2026-05-06 02:43 | 55.32820 | 12.53157 | 5103 ft | 201 kts | 333° |
| 2026-05-06 02:43 | 55.34026 | 12.51929 | 4583 ft | 199 kts | 333° |
| 2026-05-06 02:44 | 55.35201 | 12.50734 | 4248 ft | 192 kts | 333° |
| 2026-05-06 02:44 | 55.36354 | 12.49563 | 4083 ft | 191 kts | 333° |
| 2026-05-06 02:44 | 55.37503 | 12.48394 | 3691 ft | 189 kts | 333° |
| 2026-05-06 02:44 | 55.38635 | 12.47234 | 3311 ft | 187 kts | 334° |
| 2026-05-06 02:45 | 55.39764 | 12.46121 | 2923 ft | 185 kts | 338° |
| 2026-05-06 02:45 | 55.40542 | 12.45525 | 2662 ft | 182 kts | 343° |
| 2026-05-06 02:45 | 55.41725 | 12.44793 | 2502 ft | 180 kts | 345° |
| 2026-05-06 02:45 | 55.42912 | 12.44080 | 2502 ft | 180 kts | 345° |
| 2026-05-06 02:46 | 55.44098 | 12.43369 | 2504 ft | 180 kts | 345° |
| 2026-05-06 02:46 | 55.45296 | 12.42769 | 2500 ft | 177 kts | 356° |
| 2026-05-06 02:46 | 55.46505 | 12.42890 | 2501 ft | 174 kts | 17° |
| 2026-05-06 02:46 | 55.47586 | 12.43782 | 2508 ft | 172 kts | 36° |
| 2026-05-06 02:47 | 55.48499 | 12.45137 | 2511 ft | 171 kts | 41° |
| 2026-05-06 02:47 | 55.49399 | 12.46512 | 2509 ft | 171 kts | 42° |
| 2026-05-06 02:47 | 55.50299 | 12.47891 | 2509 ft | 171 kts | 42° |
| 2026-05-06 02:47 | 55.51197 | 12.49269 | 2419 ft | 171 kts | 42° |
| 2026-05-06 02:48 | 55.52095 | 12.50649 | 2225 ft | 170 kts | 41° |
| 2026-05-06 02:48 | 55.52984 | 12.52013 | 2008 ft | 169 kts | 41° |
| 2026-05-06 02:48 | 55.53844 | 12.53336 | 1785 ft | 154 kts | 41° |
| 2026-05-06 02:48 | 55.54612 | 12.54517 | 1580 ft | 141 kts | 41° |
| 2026-05-06 02:49 | 55.55337 | 12.55634 | 1394 ft | 137 kts | 41° |
| 2026-05-06 02:49 | 55.56047 | 12.56727 | 1205 ft | 135 kts | 41° |
| 2026-05-06 02:49 | 55.56750 | 12.57810 | 1024 ft | 133 kts | 41° |
| 2026-05-06 02:49 | 55.57451 | 12.58891 | 823 ft | 134 kts | 40° |
| 2026-05-06 02:50 | 55.58148 | 12.59966 | 640 ft | 133 kts | 40° |
| 2026-05-06 02:50 | 55.58842 | 12.61043 | 431 ft | 132 kts | 41° |
| 2026-05-06 02:50 | 55.59537 | 12.62112 | 278 ft | 132 kts | 40° |
| 2026-05-06 02:50 | 55.60233 | 12.63184 | 70 ft | 132 kts | 40° |
| 2026-05-06 02:51 | 55.60880 | 12.64185 | 19 ft | 110 kts | 41° |
| 2026-05-06 02:51 | 55.61329 | 12.64879 | 19 ft | 61 kts | 41° |
| 2026-05-06 02:51 | 55.61550 | 12.65052 | 18 ft | 27 kts | 342° |
| 2026-05-06 02:51 | 55.61681 | 12.64880 | 17 ft | 21 kts | 316° |
| 2026-05-06 02:52 | 55.61774 | 12.64791 | 17 ft | 15 kts | 345° |
| 2026-05-06 02:52 | 55.61875 | 12.64804 | 17 ft | 15 kts | 22° |
| 2026-05-06 02:52 | 55.61970 | 12.64907 | 17 ft | 16 kts | 32° |
| 2026-05-06 02:52 | 55.62067 | 12.65018 | 18 ft | 18 kts | 34° |
| 2026-05-06 02:53 | 55.62176 | 12.65083 | 17 ft | 17 kts | 331° |
| 2026-05-06 02:53 | 55.62251 | 12.64907 | 17 ft | 19 kts | 305° |
| 2026-05-06 02:53 | 55.62323 | 12.64706 | 17 ft | 20 kts | 303° |
| 2026-05-06 02:53 | 55.62403 | 12.64492 | 17 ft | 22 kts | 304° |
| 2026-05-06 02:54 | 55.62497 | 12.64273 | 17 ft | 23 kts | 307° |
| 2026-05-06 02:54 | 55.62572 | 12.64067 | 18 ft | 19 kts | 303° |
| 2026-05-06 02:54 | 55.62643 | 12.63881 | 19 ft | 14 kts | 311° |
| 2026-05-06 02:54 | 55.62731 | 12.63911 | 17 ft | 14 kts | 32° |
| 2026-05-06 02:55 | 55.62812 | 12.64021 | 17 ft | 15 kts | 63° |
| 2026-05-06 02:55 | 55.62791 | 12.64131 | 17 ft | 2 kts | 122° |
| 2026-05-06 02:55 | 55.62787 | 12.64143 | 17 ft | 0 kts | 123° |